createdAt,value
2019-03-08T00:02:25.516Z,8.10
2019-03-08T00:04:54.559Z,8.10
2019-03-08T00:07:23.407Z,8.10
2019-03-08T00:09:52.942Z,8.10
2019-03-08T00:12:21.687Z,8.10
2019-03-08T00:14:50.430Z,8.10
2019-03-08T00:17:19.114Z,8.10
2019-03-08T00:19:48.088Z,8.10
2019-03-08T00:22:16.842Z,8.00
2019-03-08T00:24:45.874Z,7.90
2019-03-08T00:27:14.657Z,7.80
2019-03-08T00:29:43.812Z,7.70
2019-03-08T00:32:12.614Z,7.70
2019-03-08T00:34:41.398Z,7.50
2019-03-08T00:37:10.139Z,7.30
2019-03-08T00:39:39.011Z,7.20
2019-03-08T00:42:07.779Z,7.10
2019-03-08T00:44:36.640Z,7.10
2019-03-08T00:47:05.561Z,7.00
2019-03-08T00:49:34.387Z,7.00
2019-03-08T00:52:03.283Z,6.90
2019-03-08T00:54:32.112Z,7.00
2019-03-08T00:57:01.098Z,7.00
2019-03-08T00:59:30.015Z,7.00
2019-03-08T01:02:18.030Z,7.00
2019-03-08T01:04:47.022Z,7.00
2019-03-08T01:07:15.830Z,7.00
2019-03-08T01:09:44.529Z,7.10
2019-03-08T01:12:13.156Z,7.10
2019-03-08T01:14:41.996Z,7.10
2019-03-08T01:17:11.032Z,7.10
2019-03-08T01:19:40.142Z,7.10
2019-03-08T01:22:08.875Z,7.00
2019-03-08T01:24:56.902Z,7.00
2019-03-08T01:27:25.670Z,7.00
2019-03-08T01:29:54.707Z,7.00
2019-03-08T01:32:23.606Z,7.00
2019-03-08T01:34:52.455Z,7.00
2019-03-08T01:37:21.240Z,7.00
2019-03-08T01:39:50.368Z,7.00
2019-03-08T01:42:19.338Z,7.10
2019-03-08T01:44:48.294Z,7.10
2019-03-08T01:47:17.076Z,7.10
2019-03-08T01:49:45.809Z,7.10
2019-03-08T01:52:15.007Z,7.10
2019-03-08T01:57:30.779Z,7.00
2019-03-08T01:59:59.498Z,6.90
2019-03-08T02:02:28.757Z,6.80
2019-03-08T02:04:57.594Z,6.70
2019-03-08T02:07:26.660Z,6.70
2019-03-08T02:09:55.611Z,6.60
2019-03-08T02:12:24.698Z,6.60
2019-03-08T02:14:53.458Z,6.60
2019-03-08T02:17:22.362Z,6.60
2019-03-08T02:19:51.147Z,6.50
2019-03-08T02:22:19.913Z,6.60
2019-03-08T02:24:48.787Z,6.60
2019-03-08T02:27:17.569Z,6.50
2019-03-08T02:29:46.890Z,6.50
2019-03-08T02:32:15.730Z,6.50
2019-03-08T02:34:44.599Z,6.60
2019-03-08T02:37:13.294Z,6.50
2019-03-08T02:39:42.083Z,6.50
2019-03-08T02:42:11.103Z,6.60
2019-03-08T02:44:39.931Z,6.50
2019-03-08T02:47:08.632Z,6.50
2019-03-08T02:49:37.714Z,6.50
2019-03-08T02:52:06.967Z,6.50
2019-03-08T02:54:35.877Z,6.50
2019-03-08T02:57:04.700Z,6.50
2019-03-08T02:59:33.891Z,6.50
2019-03-08T03:02:03.681Z,6.50
2019-03-08T03:04:33.301Z,6.50
2019-03-08T03:07:02.449Z,6.40
2019-03-08T03:09:31.315Z,6.20
2019-03-08T03:11:59.946Z,6.20
2019-03-08T03:14:28.762Z,6.20
2019-03-08T03:16:57.807Z,6.20
2019-03-08T03:19:26.760Z,6.20
2019-03-08T03:21:55.737Z,6.20
2019-03-08T03:24:24.366Z,6.20
2019-03-08T03:26:53.123Z,6.20
2019-03-08T03:29:22.027Z,6.20
2019-03-08T03:31:50.849Z,6.10
2019-03-08T03:34:20.001Z,6.10
2019-03-08T03:36:48.801Z,6.10
2019-03-08T03:39:17.710Z,6.00
2019-03-08T03:41:46.718Z,6.00
2019-03-08T03:44:15.515Z,6.00
2019-03-08T03:46:44.395Z,5.90
2019-03-08T03:49:13.291Z,5.90
2019-03-08T03:51:42.039Z,5.90
2019-03-08T03:54:11.183Z,5.90
2019-03-08T03:56:40.026Z,5.90
2019-03-08T03:59:08.748Z,5.90
2019-03-08T04:01:39.477Z,5.90
2019-03-08T04:04:08.162Z,5.90
2019-03-08T04:06:37.025Z,5.90
2019-03-08T04:09:07.371Z,5.90
2019-03-08T04:11:36.198Z,5.90
2019-03-08T04:14:05.139Z,5.80
2019-03-08T04:16:34.025Z,5.90
2019-03-08T04:19:22.031Z,5.90
2019-03-08T04:21:50.801Z,5.90
2019-03-08T04:24:19.748Z,5.90
2019-03-08T04:26:48.415Z,5.90
2019-03-08T04:29:17.292Z,6.00
2019-03-08T04:31:46.198Z,6.00
2019-03-08T04:34:14.874Z,5.90
2019-03-08T04:36:43.692Z,6.00
2019-03-08T04:39:12.536Z,6.00
2019-03-08T04:41:41.471Z,6.10
2019-03-08T04:44:10.390Z,6.10
2019-03-08T04:46:39.227Z,6.10
2019-03-08T04:49:08.107Z,6.20
2019-03-08T04:51:36.865Z,6.20
2019-03-08T04:54:05.715Z,6.20
2019-03-08T04:56:34.456Z,6.20
2019-03-08T04:59:03.343Z,6.20
2019-03-08T05:01:32.149Z,6.20
2019-03-08T05:04:01.051Z,6.20
2019-03-08T05:06:29.816Z,6.20
2019-03-08T05:08:58.629Z,6.20
2019-03-08T05:11:27.652Z,6.20
2019-03-08T05:13:56.550Z,6.30
2019-03-08T05:16:25.366Z,6.30
2019-03-08T05:18:54.022Z,6.30
2019-03-08T05:21:22.710Z,6.30
2019-03-08T05:23:51.540Z,6.30
2019-03-08T05:26:20.259Z,6.30
2019-03-08T05:28:49.093Z,6.30
2019-03-08T05:31:17.997Z,6.30
2019-03-08T05:33:47.667Z,6.30
2019-03-08T05:36:16.454Z,6.30
2019-03-08T05:38:45.312Z,6.30
2019-03-08T05:41:15.805Z,6.30
2019-03-08T05:43:44.573Z,6.30
2019-03-08T05:46:13.299Z,6.30
2019-03-08T05:48:42.078Z,6.30
2019-03-08T05:51:10.945Z,6.30
2019-03-08T05:53:39.843Z,6.30
2019-03-08T05:56:10.421Z,6.30
2019-03-08T05:58:39.223Z,6.30
2019-03-08T06:01:07.942Z,6.30
2019-03-08T06:03:36.633Z,6.30
2019-03-08T06:06:05.328Z,5.90
2019-03-08T06:08:34.046Z,6.40
2019-03-08T06:11:03.071Z,6.40
2019-03-08T06:13:31.914Z,6.40
2019-03-08T06:16:00.774Z,6.40
2019-03-08T06:18:29.542Z,6.40
2019-03-08T06:20:58.380Z,6.30
2019-03-08T06:23:27.087Z,6.40
2019-03-08T06:25:56.221Z,6.30
2019-03-08T06:28:25.112Z,6.30
2019-03-08T06:30:54.018Z,6.30
2019-03-08T06:33:22.805Z,6.40
2019-03-08T06:35:51.715Z,6.40
2019-03-08T06:38:20.838Z,6.40
2019-03-08T06:40:49.757Z,6.40
2019-03-08T06:43:18.578Z,6.40
2019-03-08T06:45:47.299Z,6.40
2019-03-08T06:48:16.094Z,6.50
2019-03-08T06:50:45.214Z,6.50
2019-03-08T06:53:14.022Z,6.50
2019-03-08T06:55:42.871Z,6.50
2019-03-08T06:58:12.634Z,6.60
2019-03-08T07:00:43.101Z,6.60
2019-03-08T07:03:11.946Z,6.60
2019-03-08T07:05:40.704Z,6.60
2019-03-08T07:08:28.740Z,6.60
2019-03-08T07:10:57.459Z,6.60
2019-03-08T07:13:28.053Z,6.60
2019-03-08T07:15:56.679Z,6.60
2019-03-08T07:18:44.795Z,6.60
2019-03-08T07:21:21.116Z,6.60
2019-03-08T07:24:00.143Z,6.60
2019-03-08T07:26:33.307Z,6.60
2019-03-08T07:29:16.205Z,6.60
2019-03-08T07:31:46.676Z,6.60
2019-03-08T07:34:33.304Z,6.60
2019-03-08T07:37:12.851Z,6.60
2019-03-08T07:39:55.280Z,6.50
2019-03-08T07:42:31.642Z,6.40
2019-03-08T07:45:02.979Z,6.40
2019-03-08T07:47:49.306Z,6.40
2019-03-08T07:50:31.799Z,6.40
2019-03-08T07:53:08.118Z,6.40
2019-03-08T07:55:44.039Z,6.40
2019-03-08T07:58:14.447Z,6.40
2019-03-08T08:00:48.322Z,6.50
2019-03-08T08:03:18.978Z,6.50
2019-03-08T08:05:57.602Z,6.60
2019-03-08T08:08:21.327Z,6.60
2019-03-08T08:10:57.925Z,6.70
2019-03-08T08:13:31.155Z,6.80
2019-03-08T08:16:04.085Z,6.90
2019-03-08T08:18:34.435Z,7.00
2019-03-08T08:21:10.614Z,7.10
2019-03-08T08:23:53.302Z,7.10
2019-03-08T08:26:41.541Z,7.10
2019-03-08T08:29:34.920Z,7.10
2019-03-08T08:32:01.011Z,7.20
2019-03-08T08:34:34.558Z,7.20
2019-03-08T08:37:07.908Z,7.20
2019-03-08T08:39:56.753Z,7.40
2019-03-08T08:42:35.839Z,7.70
2019-03-08T08:45:07.740Z,7.90
2019-03-08T08:47:46.494Z,8.20
2019-03-08T08:50:16.806Z,8.40
2019-03-08T08:52:50.203Z,8.70
2019-03-08T08:55:26.894Z,8.60
2019-03-08T08:57:57.330Z,8.50
2019-03-08T09:00:44.147Z,8.70
2019-03-08T09:03:30.609Z,8.60
2019-03-08T09:06:01.272Z,8.50
2019-03-08T09:08:50.025Z,8.50
2019-03-08T09:11:24.800Z,8.40
2019-03-08T09:14:00.892Z,8.10
2019-03-08T09:16:47.415Z,7.90
2019-03-08T09:19:36.264Z,7.80
2019-03-08T09:22:09.763Z,7.90
2019-03-08T09:24:40.352Z,7.90
2019-03-08T09:27:10.831Z,8.20
2019-03-08T09:29:57.713Z,8.60
2019-03-08T09:32:31.184Z,9.40
2019-03-08T09:35:13.272Z,9.80
2019-03-08T09:37:46.482Z,9.50
2019-03-08T09:40:21.538Z,9.20
2019-03-08T09:42:54.533Z,8.90
2019-03-08T09:45:27.422Z,8.50
2019-03-08T09:48:03.730Z,8.30
2019-03-08T10:00:38.407Z,8.30
2019-03-08T10:03:09.110Z,8.40
2019-03-08T10:05:42.062Z,8.50
2019-03-08T10:08:21.593Z,8.70
2019-03-08T10:11:08.209Z,9.50
2019-03-08T10:13:50.323Z,9.70
2019-03-08T10:16:20.844Z,10.00
2019-03-08T10:19:00.069Z,11.00
2019-03-08T10:21:46.379Z,10.90
2019-03-08T10:24:19.315Z,10.30
2019-03-08T10:26:49.861Z,10.10
2019-03-08T10:29:25.879Z,10.00
2019-03-08T10:32:14.703Z,9.80
2019-03-08T10:35:01.775Z,9.40
2019-03-08T10:37:41.501Z,9.20
2019-03-08T10:40:37.214Z,8.90
2019-03-08T10:43:13.223Z,8.40
2019-03-08T10:45:58.244Z,8.10
2019-03-08T10:48:28.747Z,8.00
2019-03-08T10:51:10.955Z,7.90
2019-03-08T10:54:00.884Z,7.70
2019-03-08T10:56:34.091Z,7.40
2019-03-08T10:59:13.335Z,7.30
2019-03-08T11:01:55.630Z,7.20
2019-03-08T11:04:26.335Z,7.10
2019-03-08T11:07:14.820Z,7.00
2019-03-08T11:09:50.975Z,6.90
2019-03-08T11:12:36.590Z,6.80
2019-03-08T11:15:11.237Z,6.70
2019-03-08T11:17:50.345Z,6.70
2019-03-08T11:20:13.867Z,6.80
2019-03-08T11:22:46.973Z,6.90
2019-03-08T11:25:35.177Z,7.00
2019-03-08T11:28:05.935Z,7.10
2019-03-08T11:30:36.581Z,7.30
2019-03-08T11:33:07.201Z,7.40
2019-03-08T11:35:38.900Z,7.90
2019-03-08T11:38:14.059Z,8.40
2019-03-08T11:40:47.017Z,8.70
2019-03-08T11:43:26.022Z,8.70
2019-03-08T11:45:56.655Z,8.60
2019-03-08T11:48:44.370Z,8.40
2019-03-08T11:51:23.852Z,8.20
2019-03-08T11:54:10.752Z,8.20
2019-03-08T11:56:56.373Z,8.80
2019-03-08T11:59:28.400Z,8.80
2019-03-08T12:01:59.236Z,8.70
2019-03-08T12:04:32.422Z,8.60
2019-03-08T12:07:17.939Z,8.60
2019-03-08T12:09:54.551Z,8.60
2019-03-08T12:12:27.503Z,8.50
2019-03-08T12:14:58.045Z,8.60
2019-03-08T12:17:28.478Z,8.80
2019-03-08T12:20:08.053Z,9.10
2019-03-08T12:22:55.049Z,9.40
2019-03-08T12:25:28.346Z,9.50
2019-03-08T12:27:58.680Z,9.50
2019-03-08T12:30:31.982Z,9.50
2019-03-08T12:33:08.363Z,9.60
2019-03-08T12:35:38.870Z,9.20
2019-03-08T12:38:25.345Z,9.00
2019-03-08T12:40:56.079Z,9.00
2019-03-08T12:43:45.059Z,9.00
2019-03-08T12:46:25.092Z,9.00
2019-03-08T12:49:10.736Z,8.90
2019-03-08T12:51:47.376Z,9.00
2019-03-08T12:54:20.539Z,9.10
2019-03-08T12:57:03.277Z,9.20
2019-03-08T12:59:39.694Z,9.10
2019-03-08T13:02:13.324Z,9.10
2019-03-08T13:04:52.708Z,9.10
2019-03-08T13:07:25.954Z,8.90
2019-03-08T13:09:56.470Z,8.80
2019-03-08T13:12:25.334Z,8.60
2019-03-08T13:14:54.030Z,8.50
2019-03-08T13:17:22.882Z,8.30
2019-03-08T13:19:53.327Z,8.20
2019-03-08T13:22:22.268Z,8.10
2019-03-08T13:24:51.031Z,8.20
2019-03-08T13:27:20.076Z,8.20
2019-03-08T13:29:48.397Z,8.10
2019-03-08T13:32:16.751Z,8.20
2019-03-08T13:34:45.142Z,8.30
2019-03-08T13:37:14.308Z,8.40
2019-03-08T13:39:44.003Z,8.50
2019-03-08T13:42:14.124Z,8.70
2019-03-08T13:44:43.010Z,8.70
2019-03-08T13:47:11.714Z,8.80
2019-03-08T13:49:40.555Z,8.80
2019-03-08T13:52:10.014Z,8.90
2019-03-08T13:54:38.876Z,8.70
2019-03-08T13:57:07.748Z,8.90
2019-03-08T13:59:36.776Z,8.80
2019-03-08T14:02:05.533Z,8.90
2019-03-08T14:04:34.379Z,9.30
2019-03-08T14:07:03.154Z,9.70
2019-03-08T14:09:31.968Z,9.80
2019-03-08T14:12:01.583Z,9.80
2019-03-08T14:14:30.924Z,9.60
2019-03-08T14:16:59.777Z,9.60
2019-03-08T14:19:28.788Z,9.60
2019-03-08T14:21:57.632Z,9.60
2019-03-08T14:24:26.367Z,9.60
2019-03-08T14:26:55.454Z,9.60
2019-03-08T14:29:26.478Z,9.70
2019-03-08T14:31:57.051Z,9.80
2019-03-08T14:34:25.810Z,9.80
2019-03-08T14:36:54.567Z,9.70
2019-03-08T14:39:23.543Z,9.70
2019-03-08T14:41:54.405Z,9.80
2019-03-08T14:44:41.059Z,9.70
2019-03-08T14:47:11.640Z,9.80
2019-03-08T14:49:40.788Z,9.90
2019-03-08T14:52:10.002Z,10.00
2019-03-08T14:54:42.294Z,10.00
2019-03-08T14:57:13.083Z,10.10
2019-03-08T14:59:41.035Z,9.90
2019-03-08T15:02:13.629Z,10.00
2019-03-08T15:04:40.614Z,10.00
2019-03-08T15:07:09.532Z,9.70
2019-03-08T15:09:38.306Z,9.60
2019-03-08T15:12:13.605Z,9.60
2019-03-08T15:14:37.719Z,9.50
2019-03-08T15:17:09.344Z,9.50
2019-03-08T15:19:40.288Z,9.50
2019-03-08T15:22:08.123Z,9.60
2019-03-08T15:24:38.657Z,9.50
2019-03-08T15:27:07.654Z,9.50
2019-03-08T15:29:37.010Z,9.40
2019-03-08T15:32:05.906Z,9.40
2019-03-08T15:34:34.974Z,9.30
2019-03-08T15:37:03.941Z,9.30
2019-03-08T15:39:32.973Z,9.30
2019-03-08T15:42:02.339Z,9.20
2019-03-08T15:44:35.536Z,9.20
2019-03-08T15:47:04.595Z,9.20
2019-03-08T15:49:34.086Z,9.20
2019-03-08T15:52:22.399Z,9.30
2019-03-08T15:54:51.163Z,9.30
2019-03-08T15:57:20.230Z,9.30
2019-03-08T15:59:49.026Z,9.30
2019-03-08T16:02:17.911Z,9.10
2019-03-08T16:04:50.120Z,9.10
2019-03-08T16:07:19.049Z,9.10
2019-03-08T16:09:49.450Z,9.00
2019-03-08T16:12:18.261Z,8.90
2019-03-08T16:14:47.111Z,8.90
2019-03-08T16:17:16.463Z,8.90
2019-03-08T16:19:45.661Z,8.90
2019-03-08T16:22:15.092Z,8.90
2019-03-08T16:24:43.971Z,8.90
2019-03-08T16:27:12.996Z,8.90
2019-03-08T16:29:43.232Z,8.80
2019-03-08T16:32:16.314Z,8.80
2019-03-08T16:34:45.298Z,8.90
2019-03-08T16:37:22.591Z,8.80
2019-03-08T16:40:09.771Z,8.80
2019-03-08T16:42:40.502Z,8.80
2019-03-08T16:45:27.076Z,8.80
2019-03-08T16:48:06.571Z,8.80
2019-03-08T16:50:42.767Z,8.80
2019-03-08T16:53:13.330Z,8.80
2019-03-08T16:55:49.507Z,8.80
2019-03-08T16:58:19.768Z,8.70
2019-03-08T17:00:58.195Z,8.80
2019-03-08T17:03:37.925Z,8.80
2019-03-08T17:06:15.497Z,8.70
2019-03-08T17:08:49.190Z,8.70
2019-03-08T17:11:19.749Z,8.70
2019-03-08T17:13:58.923Z,8.70
2019-03-08T17:16:35.312Z,8.70
2019-03-08T17:19:11.969Z,8.60
2019-03-08T17:21:41.080Z,8.60
2019-03-08T17:24:28.138Z,8.60
2019-03-08T17:27:07.677Z,8.50
2019-03-08T17:29:41.076Z,8.40
2019-03-08T17:32:14.222Z,8.30
2019-03-08T17:35:00.679Z,8.30
2019-03-08T17:37:36.984Z,8.30
2019-03-08T17:40:13.687Z,8.20
2019-03-08T17:42:47.026Z,8.20
2019-03-08T17:45:20.023Z,8.20
2019-03-08T17:47:50.709Z,8.10
2019-03-08T17:50:24.084Z,8.20
2019-03-08T17:52:54.518Z,8.10
2019-03-08T17:55:41.165Z,8.10
2019-03-08T17:58:28.146Z,8.10
2019-03-08T18:01:15.062Z,8.10
2019-03-08T18:03:54.278Z,8.10
2019-03-08T18:06:27.784Z,8.10
2019-03-08T18:09:04.582Z,8.00
2019-03-08T18:11:52.995Z,8.00
2019-03-08T18:14:41.820Z,7.90
2019-03-08T18:17:13.217Z,7.90
2019-03-08T18:19:46.606Z,7.90
2019-03-08T18:22:17.175Z,7.90
2019-03-08T18:24:53.673Z,7.90
2019-03-08T18:27:36.219Z,7.90
2019-03-08T18:30:23.001Z,8.00
2019-03-08T18:32:56.218Z,8.00
2019-03-08T18:35:44.919Z,8.00
2019-03-08T18:38:24.144Z,8.00
2019-03-08T18:40:57.019Z,8.00
2019-03-08T18:43:42.403Z,7.90
2019-03-08T18:46:15.946Z,7.80
2019-03-08T18:48:46.299Z,7.80
2019-03-08T18:51:31.826Z,7.70
2019-03-08T18:54:13.907Z,7.70
2019-03-08T18:56:47.296Z,7.70
2019-03-08T18:59:24.014Z,7.70
2019-03-08T19:01:54.809Z,7.70
2019-03-08T19:04:28.185Z,7.70
2019-03-08T19:07:02.152Z,7.70
2019-03-08T19:09:35.127Z,7.80
2019-03-08T19:12:14.940Z,7.70
2019-03-08T19:14:45.833Z,7.70
2019-03-08T19:17:33.193Z,7.60
2019-03-08T19:20:09.952Z,7.50
2019-03-08T19:22:52.726Z,7.50
2019-03-08T19:25:28.901Z,7.60
2019-03-08T19:27:59.643Z,7.60
2019-03-08T19:30:30.197Z,7.70
2019-03-08T19:33:04.124Z,7.60
2019-03-08T19:35:46.719Z,7.60
2019-03-08T19:38:20.084Z,7.70
2019-03-08T19:41:06.683Z,7.70
2019-03-08T19:43:37.537Z,7.60
2019-03-08T19:46:24.419Z,7.60
2019-03-08T19:49:11.018Z,7.60
2019-03-08T19:51:59.658Z,7.60
2019-03-08T19:54:46.271Z,7.60
2019-03-08T19:57:40.384Z,7.60
2019-03-08T20:00:28.479Z,7.60
2019-03-08T20:03:15.010Z,7.60
2019-03-08T20:05:54.466Z,7.60
2019-03-08T20:08:27.517Z,7.60
2019-03-08T20:11:14.128Z,7.60
2019-03-08T20:13:56.666Z,7.60
2019-03-08T20:16:43.329Z,7.60
2019-03-08T20:19:16.779Z,7.60
2019-03-08T20:21:52.219Z,7.60
2019-03-08T20:24:31.264Z,7.60
2019-03-08T20:27:18.138Z,7.60
2019-03-08T20:29:48.730Z,7.60
2019-03-08T20:32:24.865Z,7.60
2019-03-08T20:35:04.369Z,7.60
2019-03-08T20:37:40.934Z,7.60
2019-03-08T20:40:20.835Z,7.60
2019-03-08T20:42:51.354Z,7.70
2019-03-08T20:45:22.209Z,7.70
2019-03-08T20:47:52.620Z,7.70
2019-03-08T20:50:21.556Z,7.70
2019-03-08T20:52:50.514Z,7.70
2019-03-08T20:55:19.569Z,7.70
2019-03-08T20:57:48.358Z,7.60
2019-03-08T21:00:17.685Z,7.60
2019-03-08T21:02:46.578Z,7.60
2019-03-08T21:05:15.641Z,7.60
2019-03-08T21:07:44.550Z,7.70
2019-03-08T21:10:14.429Z,7.70
2019-03-08T21:12:44.089Z,7.80
2019-03-08T21:15:13.645Z,7.70
2019-03-08T21:17:42.607Z,7.70
2019-03-08T21:20:11.983Z,7.70
2019-03-08T21:22:41.132Z,7.60
2019-03-08T21:25:11.384Z,7.60
2019-03-08T21:27:40.622Z,7.60
2019-03-08T21:30:19.066Z,7.60
2019-03-08T21:32:47.874Z,7.50
2019-03-08T21:35:16.790Z,7.50
2019-03-08T21:37:46.225Z,7.40
2019-03-08T21:40:15.082Z,7.40
2019-03-08T21:42:44.102Z,7.40
2019-03-08T21:45:16.834Z,7.30
2019-03-08T21:47:45.991Z,7.30
2019-03-08T21:50:16.130Z,7.20
2019-03-08T21:52:45.031Z,7.20
2019-03-08T21:55:13.899Z,7.20
2019-03-08T21:57:42.762Z,7.10
2019-03-08T22:00:13.214Z,7.10
2019-03-08T22:02:42.388Z,7.10
2019-03-08T22:05:11.313Z,7.20
2019-03-08T22:07:40.461Z,7.20
2019-03-08T22:10:12.882Z,7.30
2019-03-08T22:12:42.039Z,7.30
2019-03-08T22:15:11.383Z,7.30
2019-03-08T22:17:40.448Z,7.30
2019-03-08T22:20:09.954Z,7.20
2019-03-08T22:22:38.810Z,7.20
2019-03-08T22:25:10.173Z,7.10
2019-03-08T22:27:38.854Z,7.00
2019-03-08T22:30:12.496Z,7.00
2019-03-08T22:32:41.498Z,7.00
2019-03-08T22:35:10.282Z,7.00
2019-03-08T22:37:39.141Z,7.10
2019-03-08T22:40:12.339Z,7.10
2019-03-08T22:42:41.227Z,7.10
2019-03-08T22:45:11.306Z,7.10
2019-03-08T22:47:40.241Z,7.10
2019-03-08T22:50:10.723Z,7.10
2019-03-08T22:52:39.946Z,7.10
2019-03-08T22:55:09.938Z,7.20
2019-03-08T22:57:38.794Z,7.20
2019-03-08T23:00:13.894Z,7.20
2019-03-08T23:02:43.215Z,7.20
2019-03-08T23:05:12.254Z,7.20
2019-03-08T23:07:41.215Z,7.20
2019-03-08T23:10:10.844Z,7.30
2019-03-08T23:12:39.828Z,7.30
2019-03-08T23:15:09.769Z,7.40
2019-03-08T23:17:38.558Z,7.50
2019-03-08T23:20:08.154Z,7.50
2019-03-08T23:22:37.434Z,7.60
2019-03-08T23:25:06.749Z,7.60
2019-03-08T23:27:37.152Z,7.60
2019-03-08T23:30:07.541Z,7.50
2019-03-08T23:32:37.611Z,7.50
2019-03-08T23:35:07.866Z,7.50
2019-03-08T23:37:39.534Z,7.50
2019-03-08T23:40:08.929Z,7.50
2019-03-08T23:42:37.989Z,7.40
2019-03-08T23:45:08.323Z,7.30
2019-03-08T23:47:37.141Z,7.20
2019-03-08T23:50:08.019Z,7.10
2019-03-08T23:52:36.881Z,7.10
2019-03-08T23:55:07.411Z,7.00
2019-03-08T23:57:36.188Z,7.00
